Time;durP1;ratioP1;P1;durP2;ratioP2;P2;SDS_P1;SDS_P2;PMS_P1;PMS_P2;Temp;Humidity;BMP_temperature;BMP_pressure;BME280_temperature;BME280_humidity;BME280_pressure;Samples;Min_cycle;Max_cycle;Signal;HPM_P1;HPM_P2
2023/12/30 00:01:53;;;;;;;5.95;1.25;;;7.00;99.90;;;;;;5052271;28;20405;-68
2023/12/30 00:04:19;;;;;;;5.72;1.42;;;7.00;99.90;;;;;;5052671;28;20127;-69
2023/12/30 00:06:44;;;;;;;5.20;1.00;;;7.00;99.90;;;;;;5055041;28;20029;-69
2023/12/30 00:09:10;;;;;;;8.02;1.52;;;7.00;99.90;;;;;;5061053;28;20107;-69
2023/12/30 00:11:36;;;;;;;6.85;1.30;;;7.00;99.90;;;;;;5055353;28;20296;-71
2023/12/30 00:14:05;;;;;;;7.03;1.13;;;6.90;99.90;;;;;;5052671;28;20025;-73
2023/12/30 00:16:31;;;;;;;11.38;2.03;;;6.90;99.90;;;;;;5038280;28;20966;-68
2023/12/30 00:18:57;;;;;;;7.32;1.27;;;6.90;99.90;;;;;;5028329;28;20112;-70
2023/12/30 00:21:23;;;;;;;5.97;1.40;;;6.90;99.90;;;;;;5060145;28;20081;-68
2023/12/30 00:23:49;;;;;;;10.20;1.08;;;6.90;99.90;;;;;;5058441;28;20048;-68
2023/12/30 00:26:33;;;;;;;13.02;2.05;;;6.90;99.90;;;;;;5048588;28;20040;-68
2023/12/30 00:28:59;;;;;;;7.80;1.40;;;6.90;99.90;;;;;;5058843;28;20067;-68
2023/12/30 00:31:26;;;;;;;11.45;2.03;;;6.90;99.90;;;;;;5033824;28;20029;-70
2023/12/30 00:33:58;;;;;;;7.75;1.52;;;7.00;99.90;;;;;;5056053;28;20034;-68
2023/12/30 00:36:24;;;;;;;8.45;1.50;;;7.00;99.90;;;;;;5059787;28;20037;-68
2023/12/30 00:38:54;;;;;;;12.38;1.77;;;7.00;99.90;;;;;;5055548;28;20159;-68
2023/12/30 00:41:20;;;;;;;9.82;1.20;;;7.10;99.90;;;;;;5034078;28;20025;-68
2023/12/30 00:43:46;;;;;;;7.35;1.70;;;7.10;99.90;;;;;;5058218;28;20545;-68
2023/12/30 00:46:12;;;;;;;11.65;2.22;;;7.10;99.90;;;;;;5059741;28;20139;-68
2023/12/30 00:48:37;;;;;;;13.30;1.70;;;7.10;99.90;;;;;;5020424;28;20393;-68
2023/12/30 00:51:03;;;;;;;15.45;2.20;;;7.10;99.90;;;;;;5057008;28;20060;-68
2023/12/30 00:53:29;;;;;;;10.63;1.60;;;7.20;99.90;;;;;;5064525;28;20052;-68
2023/12/30 00:55:55;;;;;;;7.38;1.30;;;7.20;99.90;;;;;;5052886;28;20123;-68
2023/12/30 00:58:21;;;;;;;10.45;1.40;;;7.20;99.90;;;;;;5055975;28;20458;-68
2023/12/30 01:00:47;;;;;;;14.75;1.85;;;7.20;99.90;;;;;;5043638;28;20100;-68
2023/12/30 01:03:13;;;;;;;13.10;1.38;;;7.20;99.90;;;;;;5035820;28;20021;-68
2023/12/30 01:05:38;;;;;;;12.90;2.20;;;7.20;99.90;;;;;;5063367;28;20525;-68
2023/12/30 01:08:04;;;;;;;13.85;1.73;;;7.20;99.90;;;;;;5058149;28;20024;-68
2023/12/30 01:10:30;;;;;;;13.85;2.25;;;7.20;99.90;;;;;;5037293;28;20032;-68
2023/12/30 01:12:56;;;;;;;12.70;1.85;;;7.20;99.90;;;;;;5051770;28;20040;-68
2023/12/30 01:15:21;;;;;;;13.48;2.17;;;7.20;99.90;;;;;;5057411;28;20052;-68
2023/12/30 01:17:47;;;;;;;14.57;2.17;;;7.20;99.90;;;;;;5039731;28;20432;-68
2023/12/30 01:20:13;;;;;;;9.23;1.52;;;7.20;99.90;;;;;;5041218;28;20444;-68
2023/12/30 01:22:38;;;;;;;21.30;2.60;;;7.20;99.90;;;;;;5063809;28;20047;-68
2023/12/30 01:25:05;;;;;;;11.52;1.60;;;7.20;99.90;;;;;;5057538;28;20024;-68
2023/12/30 01:27:31;;;;;;;12.70;1.80;;;7.20;99.90;;;;;;5055491;28;20036;-68
2023/12/30 01:29:56;;;;;;;10.98;1.83;;;7.20;99.90;;;;;;5063321;28;20025;-68
2023/12/30 01:32:22;;;;;;;8.95;2.00;;;7.20;99.90;;;;;;5061560;28;20478;-68
2023/12/30 01:34:48;;;;;;;6.95;1.30;;;7.20;99.90;;;;;;5055193;28;20481;-68
2023/12/30 01:37:13;;;;;;;10.27;1.80;;;7.20;99.90;;;;;;5058856;28;20107;-70
2023/12/30 01:39:39;;;;;;;9.35;1.60;;;7.20;99.90;;;;;;5063458;28;20028;-68
2023/12/30 01:42:05;;;;;;;23.27;2.38;;;7.20;99.90;;;;;;5057022;28;20466;-68
2023/12/30 01:44:30;;;;;;;12.68;1.58;;;7.20;99.90;;;;;;5055643;28;20028;-68
2023/12/30 01:46:56;;;;;;;12.43;1.95;;;7.20;99.90;;;;;;5063036;28;20308;-69
2023/12/30 01:49:22;;;;;;;11.70;2.63;;;7.20;99.90;;;;;;5043311;28;20024;-68
2023/12/30 01:51:50;;;;;;;14.30;2.03;;;7.30;99.90;;;;;;5036492;28;20029;-68
2023/12/30 01:54:17;;;;;;;15.77;1.60;;;7.30;99.90;;;;;;5058918;28;20033;-68
2023/12/30 01:56:44;;;;;;;17.17;2.20;;;7.30;99.90;;;;;;5062559;28;20090;-68
2023/12/30 01:59:11;;;;;;;8.10;1.88;;;7.30;99.90;;;;;;5057891;28;20393;-68
2023/12/30 02:01:37;;;;;;;11.07;2.00;;;7.30;99.90;;;;;;5036120;28;20513;-68
2023/12/30 02:04:03;;;;;;;13.80;2.08;;;7.40;99.90;;;;;;5036699;28;20016;-69
2023/12/30 02:06:29;;;;;;;13.65;2.15;;;7.40;99.90;;;;;;5059291;28;20064;-68
2023/12/30 02:08:54;;;;;;;12.40;2.30;;;7.40;99.90;;;;;;5062843;28;20038;-68
2023/12/30 02:11:20;;;;;;;12.80;2.10;;;7.40;99.90;;;;;;5048855;28;20368;-68
2023/12/30 02:13:46;;;;;;;11.95;1.98;;;7.40;99.90;;;;;;5061721;28;20106;-68
2023/12/30 02:16:12;;;;;;;13.75;2.20;;;7.40;99.90;;;;;;5049101;28;20079;-68
2023/12/30 02:18:38;;;;;;;16.17;2.35;;;7.40;99.90;;;;;;5059752;28;20034;-68
2023/12/30 02:21:04;;;;;;;13.52;2.10;;;7.40;99.90;;;;;;5054056;28;20767;-68
2023/12/30 02:23:30;;;;;;;14.23;2.90;;;7.40;99.90;;;;;;5059650;28;20204;-68
2023/12/30 02:25:55;;;;;;;14.43;2.63;;;7.40;99.90;;;;;;5062117;28;20121;-69
2023/12/30 02:28:21;;;;;;;17.75;2.63;;;7.40;99.90;;;;;;5055557;28;20533;-69
2023/12/30 02:30:47;;;;;;;12.38;2.00;;;7.50;99.90;;;;;;5054904;28;20025;-69
2023/12/30 02:33:13;;;;;;;17.95;2.63;;;7.40;99.90;;;;;;5062629;28;20096;-69
2023/12/30 02:35:42;;;;;;;12.20;1.88;;;7.50;99.90;;;;;;5059293;28;20024;-69
2023/12/30 02:38:08;;;;;;;12.30;2.10;;;7.50;99.90;;;;;;5036015;28;20040;-69
2023/12/30 02:40:36;;;;;;;11.30;1.95;;;7.50;99.90;;;;;;5058373;28;20532;-69
2023/12/30 02:43:02;;;;;;;13.98;2.40;;;7.50;99.90;;;;;;5062346;28;20028;-69
2023/12/30 02:45:27;;;;;;;15.80;2.70;;;7.40;99.90;;;;;;5055758;28;20420;-69
2023/12/30 02:47:53;;;;;;;16.38;2.58;;;7.50;99.90;;;;;;5054153;28;20517;-69
2023/12/30 02:50:19;;;;;;;11.90;1.67;;;7.50;99.90;;;;;;5062146;28;20028;-70
2023/12/30 02:52:44;;;;;;;9.52;1.90;;;7.50;99.90;;;;;;5059564;28;20052;-69
2023/12/30 02:55:10;;;;;;;14.20;1.77;;;7.50;99.90;;;;;;5047084;28;20020;-69
2023/12/30 02:57:36;;;;;;;11.57;1.75;;;7.50;99.90;;;;;;5057600;28;20025;-70
2023/12/30 03:00:02;;;;;;;14.02;2.72;;;7.50;99.90;;;;;;5061962;28;20819;-70
2023/12/30 03:02:27;;;;;;;11.63;1.95;;;7.50;99.90;;;;;;5051331;28;20013;-70
2023/12/30 03:04:53;;;;;;;12.93;2.42;;;7.50;99.90;;;;;;5057693;28;20016;-69
2023/12/30 03:07:19;;;;;;;12.05;2.35;;;7.50;99.90;;;;;;5053370;28;20033;-70
2023/12/30 03:09:44;;;;;;;18.35;2.15;;;7.50;99.90;;;;;;5059726;28;20398;-69
2023/12/30 03:12:10;;;;;;;12.57;1.83;;;7.50;99.90;;;;;;5060613;28;20500;-69
2023/12/30 03:14:36;;;;;;;16.58;2.35;;;7.50;99.90;;;;;;5053425;28;20020;-70
2023/12/30 03:17:01;;;;;;;12.93;1.83;;;7.50;99.90;;;;;;5054929;28;20036;-70
2023/12/30 03:19:27;;;;;;;15.80;2.70;;;7.50;99.90;;;;;;5061627;28;20020;-70
2023/12/30 03:21:55;;;;;;;13.52;1.90;;;7.50;99.90;;;;;;5039047;28;20025;-70
2023/12/30 03:24:21;;;;;;;11.95;2.25;;;7.50;99.90;;;;;;5053189;28;20028;-70
2023/12/30 03:26:47;;;;;;;14.95;1.85;;;7.50;99.90;;;;;;5059252;28;20029;-70
2023/12/30 03:29:12;;;;;;;20.55;2.58;;;7.50;99.90;;;;;;5061551;28;20021;-70
2023/12/30 03:31:39;;;;;;;12.90;1.95;;;7.50;99.90;;;;;;5053196;28;20047;-70
2023/12/30 03:34:05;;;;;;;13.10;1.88;;;7.50;99.90;;;;;;5054986;28;20628;-70
2023/12/30 03:36:30;;;;;;;14.32;1.90;;;7.50;99.90;;;;;;5060907;28;20116;-70
2023/12/30 03:38:56;;;;;;;13.13;2.03;;;7.50;99.90;;;;;;5057078;28;20562;-69
2023/12/30 03:41:22;;;;;;;13.88;1.83;;;7.50;99.90;;;;;;5050515;28;20029;-70
2023/12/30 03:43:48;;;;;;;13.18;2.22;;;7.50;99.90;;;;;;5037021;28;20592;-70
2023/12/30 03:46:14;;;;;;;13.77;1.98;;;7.50;99.90;;;;;;5052945;28;20033;-69
2023/12/30 03:48:40;;;;;;;9.68;2.17;;;7.50;99.90;;;;;;5060969;28;20028;-69
2023/12/30 03:51:05;;;;;;;12.65;2.33;;;7.50;99.90;;;;;;5058782;28;20052;-71
2023/12/30 03:53:32;;;;;;;8.93;1.80;;;7.50;99.90;;;;;;5035012;28;20123;-70
2023/12/30 03:55:58;;;;;;;12.20;1.77;;;7.60;99.90;;;;;;5059868;28;20033;-70
2023/12/30 03:58:24;;;;;;;13.30;2.35;;;7.60;99.90;;;;;;5052694;28;20021;-70
2023/12/30 04:00:49;;;;;;;14.20;1.83;;;7.50;99.90;;;;;;5057955;28;20221;-70
2023/12/30 04:03:15;;;;;;;10.32;1.60;;;7.60;99.90;;;;;;5050841;28;20029;-70
2023/12/30 04:05:41;;;;;;;11.38;1.50;;;7.50;99.90;;;;;;5060612;28;20025;-70
2023/12/30 04:08:06;;;;;;;11.43;1.85;;;7.50;99.90;;;;;;5055257;28;20115;-73
2023/12/30 04:10:32;;;;;;;14.73;2.15;;;7.50;99.90;;;;;;5052193;28;20103;-70
2023/12/30 04:12:58;;;;;;;11.48;1.83;;;7.50;99.90;;;;;;5035062;28;20258;-69
2023/12/30 04:15:23;;;;;;;17.60;2.75;;;7.50;99.90;;;;;;5036332;28;20071;-70
2023/12/30 04:17:49;;;;;;;19.83;2.95;;;7.50;99.90;;;;;;5042482;28;20493;-70
2023/12/30 04:20:15;;;;;;;13.20;1.88;;;7.60;99.90;;;;;;5057396;28;20052;-70
2023/12/30 04:22:40;;;;;;;15.57;2.13;;;7.50;99.90;;;;;;5052166;28;20532;-70
2023/12/30 04:25:06;;;;;;;11.88;2.10;;;7.50;99.90;;;;;;5039250;28;20561;-70
2023/12/30 04:27:32;;;;;;;15.32;2.13;;;7.50;99.90;;;;;;5042508;28;20040;-70
2023/12/30 04:29:58;;;;;;;12.48;2.40;;;7.50;99.90;;;;;;5052770;28;20404;-70
2023/12/30 04:32:26;;;;;;;15.23;2.25;;;7.50;99.90;;;;;;5054073;28;20033;-69
2023/12/30 04:34:52;;;;;;;16.35;2.22;;;7.50;99.90;;;;;;5050892;28;20549;-69
2023/12/30 04:37:19;;;;;;;18.38;1.95;;;7.50;99.90;;;;;;5055406;28;20048;-70
2023/12/30 04:39:45;;;;;;;19.27;2.75;;;7.40;99.90;;;;;;5049077;28;20074;-70
2023/12/30 04:42:11;;;;;;;14.10;2.03;;;7.50;99.90;;;;;;5057236;28;20029;-69
2023/12/30 04:44:37;;;;;;;20.35;2.72;;;7.50;99.90;;;;;;5060405;28;20528;-72
2023/12/30 04:47:03;;;;;;;15.07;3.03;;;7.40;99.90;;;;;;5053068;28;20052;-70
2023/12/30 04:49:28;;;;;;;15.20;1.98;;;7.50;99.90;;;;;;5053550;28;20025;-69
2023/12/30 04:51:54;;;;;;;14.43;2.28;;;7.50;99.90;;;;;;5060066;28;20039;-69
2023/12/30 04:54:20;;;;;;;16.80;2.03;;;7.50;99.90;;;;;;5053602;28;20496;-70
2023/12/30 04:56:45;;;;;;;8.65;1.65;;;7.40;99.90;;;;;;5041652;28;20036;-69
2023/12/30 04:59:11;;;;;;;10.30;1.80;;;7.40;99.90;;;;;;5055224;28;20021;-69
2023/12/30 05:01:37;;;;;;;12.73;1.88;;;7.50;99.90;;;;;;5051753;28;20035;-68
2023/12/30 05:04:03;;;;;;;12.00;1.63;;;7.50;99.90;;;;;;5051991;28;20028;-69
2023/12/30 05:06:29;;;;;;;16.00;2.47;;;7.50;99.90;;;;;;5056821;28;20829;-69
2023/12/30 05:08:55;;;;;;;10.25;2.03;;;7.40;99.90;;;;;;5041957;28;20021;-69
2023/12/30 05:11:23;;;;;;;15.73;2.10;;;7.40;99.90;;;;;;5052990;28;20040;-69
2023/12/30 05:13:49;;;;;;;12.18;2.08;;;7.40;99.90;;;;;;5052401;28;20040;-70
2023/12/30 05:16:15;;;;;;;16.85;2.38;;;7.40;99.90;;;;;;5041374;28;20028;-70
2023/12/30 05:18:41;;;;;;;14.05;2.22;;;7.40;99.90;;;;;;5039313;28;20027;-70
2023/12/30 05:21:14;;;;;;;16.80;2.30;;;7.40;99.90;;;;;;5051583;28;20020;-69
2023/12/30 05:23:40;;;;;;;12.93;2.53;;;7.40;99.90;;;;;;5037445;28;20090;-69
2023/12/30 05:26:06;;;;;;;19.58;2.40;;;7.40;99.90;;;;;;5059742;28;20211;-70
2023/12/30 05:28:37;;;;;;;16.88;3.00;;;7.30;99.90;;;;;;5054700;28;20137;-70
2023/12/30 05:31:02;;;;;;;;;;;7.30;99.90;;;;;;5052038;28;20036;-70
2023/12/30 05:33:28;;;;;;;14.40;1.98;;;7.30;99.90;;;;;;5058821;28;19904;-70
2023/12/30 05:35:53;;;;;;;12.63;2.30;;;7.30;99.90;;;;;;5059800;28;20029;-70
2023/12/30 05:38:20;;;;;;;13.70;2.47;;;7.30;99.90;;;;;;5055128;28;20044;-70
2023/12/30 05:40:48;;;;;;;14.15;2.58;;;7.30;99.90;;;;;;5040228;28;20021;-70
2023/12/30 05:43:13;;;;;;;15.60;2.92;;;7.30;99.90;;;;;;5044847;28;20048;-70
2023/12/30 05:45:40;;;;;;;11.18;2.45;;;7.30;99.90;;;;;;5058370;28;20053;-70
2023/12/30 05:48:06;;;;;;;14.77;2.22;;;7.30;99.90;;;;;;5054806;28;20079;-70
2023/12/30 05:50:32;;;;;;;17.42;3.15;;;7.30;99.90;;;;;;5043734;28;20037;-70
2023/12/30 05:52:59;;;;;;;10.90;2.20;;;7.30;99.90;;;;;;5048775;28;20025;-70
2023/12/30 05:55:24;;;;;;;16.17;2.60;;;7.30;99.90;;;;;;5051616;28;20491;-70
2023/12/30 05:57:50;;;;;;;16.88;2.00;;;7.30;99.90;;;;;;5052073;28;20565;-70
2023/12/30 06:00:16;;;;;;;18.38;2.45;;;7.30;99.90;;;;;;5055090;28;20027;-70
2023/12/30 06:02:43;;;;;;;16.95;2.50;;;7.30;99.90;;;;;;5064565;28;20100;-70
2023/12/30 06:05:09;;;;;;;15.00;2.95;;;7.30;99.90;;;;;;5056723;28;20599;-70
2023/12/30 06:07:34;;;;;;;12.82;2.60;;;7.30;99.90;;;;;;5041851;28;20025;-70
2023/12/30 06:10:00;;;;;;;19.65;2.72;;;7.30;99.90;;;;;;5058687;28;20036;-70
2023/12/30 06:12:26;;;;;;;16.77;2.17;;;7.30;99.90;;;;;;5044345;28;20146;-70
2023/12/30 06:14:51;;;;;;;9.25;2.03;;;7.30;99.90;;;;;;5056735;28;20028;-70
2023/12/30 06:17:17;;;;;;;17.30;2.30;;;7.30;99.90;;;;;;5054278;28;20113;-70
2023/12/30 06:19:43;;;;;;;15.68;2.92;;;7.30;99.90;;;;;;5022558;28;20031;-70
2023/12/30 06:22:08;;;;;;;15.88;2.10;;;7.30;99.90;;;;;;5038541;28;20013;-70
2023/12/30 06:24:34;;;;;;;14.75;2.45;;;7.30;99.90;;;;;;5062413;28;20017;-70
2023/12/30 06:27:00;;;;;;;11.65;2.35;;;7.30;99.90;;;;;;5041629;28;20079;-70
2023/12/30 06:29:28;;;;;;;14.02;2.63;;;7.40;99.90;;;;;;5013598;28;20033;-70
2023/12/30 06:31:54;;;;;;;11.93;2.53;;;7.40;99.90;;;;;;5017339;28;20029;-70
2023/12/30 06:34:20;;;;;;;19.65;3.33;;;7.40;99.90;;;;;;5062741;28;20027;-70
2023/12/30 06:36:46;;;;;;;17.92;2.50;;;7.40;99.90;;;;;;5035588;28;20473;-70
2023/12/30 06:39:17;;;;;;;16.00;2.92;;;7.40;99.90;;;;;;5037512;28;20666;-70
2023/12/30 06:41:43;;;;;;;;;;;7.40;99.90;;;;;;5061314;28;20112;-70
2023/12/30 06:44:08;;;;;;;12.48;2.63;;;7.40;99.90;;;;;;5059054;28;19938;-72
2023/12/30 06:46:34;;;;;;;14.43;2.92;;;7.40;99.90;;;;;;5052686;28;20021;-70
2023/12/30 06:49:00;;;;;;;16.50;4.18;;;7.30;99.90;;;;;;5056674;28;20047;-70
2023/12/30 06:51:29;;;;;;;17.77;3.20;;;7.30;99.90;;;;;;5059994;28;20101;-70
2023/12/30 06:53:54;;;;;;;16.45;3.83;;;7.30;99.90;;;;;;5053445;28;20607;-70
2023/12/30 06:56:20;;;;;;;21.83;3.85;;;7.30;99.90;;;;;;5059470;28;20025;-70
2023/12/30 06:58:46;;;;;;;23.67;3.97;;;7.20;99.90;;;;;;5051971;28;20025;-70
2023/12/30 07:01:12;;;;;;;18.02;3.85;;;7.30;99.90;;;;;;5054815;28;20100;-70
2023/12/30 07:03:38;;;;;;;13.93;3.13;;;7.20;99.90;;;;;;5033559;28;20677;-70
2023/12/30 07:06:04;;;;;;;21.77;4.38;;;7.20;99.90;;;;;;5061701;28;20140;-70
2023/12/30 07:08:29;;;;;;;12.52;3.08;;;7.20;99.90;;;;;;5059006;28;20031;-70
2023/12/30 07:10:55;;;;;;;21.10;3.20;;;7.20;99.90;;;;;;5053253;28;20390;-71
2023/12/30 07:13:21;;;;;;;21.23;2.90;;;7.20;99.90;;;;;;5039537;28;20317;-70
2023/12/30 07:15:47;;;;;;;18.95;3.33;;;7.20;99.90;;;;;;5061608;28;20017;-70
2023/12/30 07:18:13;;;;;;;18.73;3.83;;;7.20;99.90;;;;;;5031414;28;20549;-70
2023/12/30 07:20:38;;;;;;;17.35;3.60;;;7.20;99.90;;;;;;5038687;28;20049;-72
2023/12/30 07:23:05;;;;;;;15.95;3.75;;;7.20;99.90;;;;;;5031567;28;20107;-70
2023/12/30 07:25:31;;;;;;;15.80;3.17;;;7.10;99.90;;;;;;5041751;28;20076;-71
2023/12/30 07:27:57;;;;;;;23.70;3.80;;;7.10;99.90;;;;;;5054328;28;20108;-68
2023/12/30 07:30:23;;;;;;;13.00;2.90;;;7.10;99.90;;;;;;5057637;28;20520;-70
2023/12/30 07:32:49;;;;;;;23.75;3.85;;;7.10;99.90;;;;;;5042755;28;20048;-71
2023/12/30 07:35:14;;;;;;;10.65;3.05;;;7.10;99.90;;;;;;5055113;28;20473;-71
2023/12/30 07:37:40;;;;;;;13.77;2.47;;;7.10;99.90;;;;;;5052315;28;20073;-70
2023/12/30 07:40:06;;;;;;;16.23;3.08;;;7.10;99.90;;;;;;5061341;28;20092;-70
2023/12/30 07:42:32;;;;;;;13.00;2.53;;;7.10;99.90;;;;;;5040454;28;20533;-75
2023/12/30 07:44:58;;;;;;;18.88;3.00;;;7.00;99.90;;;;;;5052983;28;20107;-70
2023/12/30 07:47:25;;;;;;;13.40;2.88;;;7.10;99.90;;;;;;5053820;28;20095;-70
2023/12/30 07:49:51;;;;;;;14.10;3.05;;;7.10;99.90;;;;;;5048016;28;20094;-70
2023/12/30 07:52:17;;;;;;;18.23;3.10;;;7.10;99.90;;;;;;5058477;28;20887;-70
2023/12/30 07:54:42;;;;;;;16.85;3.10;;;7.10;99.90;;;;;;5054134;28;20095;-70
2023/12/30 07:57:08;;;;;;;18.55;2.95;;;7.00;99.90;;;;;;5060551;28;20060;-70
2023/12/30 07:59:33;;;;;;;17.38;3.63;;;7.10;99.90;;;;;;5040639;28;20031;-70
2023/12/30 08:01:59;;;;;;;23.92;3.08;;;7.10;99.90;;;;;;5052192;28;20028;-70
2023/12/30 08:04:25;;;;;;;17.27;3.20;;;7.10;99.90;;;;;;5038992;28;20081;-70
2023/12/30 08:06:51;;;;;;;16.25;3.33;;;7.10;99.90;;;;;;5054523;28;20510;-70
2023/12/30 08:09:17;;;;;;;13.43;2.97;;;7.10;99.90;;;;;;5061261;28;20450;-70
2023/12/30 08:11:43;;;;;;;26.20;4.28;;;7.10;99.90;;;;;;5056405;28;20028;-70
2023/12/30 08:14:09;;;;;;;25.85;3.78;;;7.10;99.90;;;;;;5034583;28;20509;-69
2023/12/30 08:16:35;;;;;;;18.95;3.20;;;7.10;99.90;;;;;;5058323;28;20303;-70
2023/12/30 08:19:02;;;;;;;15.40;2.97;;;7.10;99.90;;;;;;5046442;28;20427;-70
2023/12/30 08:21:28;;;;;;;22.42;3.72;;;7.20;99.90;;;;;;5060240;28;20553;-70
2023/12/30 08:23:56;;;;;;;20.75;3.38;;;7.20;99.90;;;;;;5058817;28;20683;-71
2023/12/30 08:26:22;;;;;;;16.17;3.20;;;7.20;99.90;;;;;;5047707;28;20048;-71
2023/12/30 08:28:50;;;;;;;23.73;3.35;;;7.20;99.90;;;;;;5055772;28;20028;-71
2023/12/30 08:31:16;;;;;;;16.42;3.72;;;7.30;99.90;;;;;;5033227;28;20497;-70
2023/12/30 08:33:42;;;;;;;13.90;2.67;;;7.30;99.90;;;;;;5045163;28;20033;-71
2023/12/30 08:36:07;;;;;;;20.25;3.20;;;7.30;99.90;;;;;;5015686;28;20033;-72
2023/12/30 08:38:33;;;;;;;13.55;2.78;;;7.30;99.90;;;;;;5030544;28;20040;-70
2023/12/30 08:40:59;;;;;;;13.90;2.58;;;7.30;99.90;;;;;;5032498;28;20584;-71
2023/12/30 08:43:24;;;;;;;23.42;3.45;;;7.40;99.90;;;;;;5016304;28;20044;-71
2023/12/30 08:45:50;;;;;;;16.38;2.95;;;7.40;99.90;;;;;;5028018;28;20021;-71
2023/12/30 08:48:16;;;;;;;16.55;3.22;;;7.40;99.90;;;;;;5028371;28;20020;-71
2023/12/30 08:50:43;;;;;;;21.13;3.83;;;7.40;99.90;;;;;;5019403;28;20052;-71
2023/12/30 08:53:08;;;;;;;14.27;3.03;;;7.40;99.90;;;;;;5029119;28;20029;-71
2023/12/30 08:55:34;;;;;;;14.85;2.92;;;7.50;99.90;;;;;;5044593;28;20024;-70
2023/12/30 08:57:59;;;;;;;16.90;2.97;;;7.50;99.90;;;;;;5030764;28;20038;-70
2023/12/30 09:00:25;;;;;;;17.05;3.00;;;7.50;99.90;;;;;;5046199;28;20025;-71
2023/12/30 09:02:55;;;;;;;16.73;2.90;;;7.50;99.90;;;;;;5047881;28;20494;-71
2023/12/30 09:05:20;;;;;;;18.35;3.05;;;7.50;99.90;;;;;;5052820;28;20074;-71
2023/12/30 09:07:48;;;;;;;15.55;2.92;;;7.60;99.90;;;;;;5059910;28;20029;-73
2023/12/30 09:10:15;;;;;;;16.85;2.95;;;7.60;99.90;;;;;;5040430;28;20512;-70
2023/12/30 09:12:40;;;;;;;13.63;2.88;;;7.60;99.90;;;;;;5055355;28;20473;-71
2023/12/30 09:15:06;;;;;;;15.40;3.20;;;7.70;99.90;;;;;;5059945;28;20036;-71
2023/12/30 09:17:32;;;;;;;17.92;3.15;;;7.60;99.90;;;;;;5060978;28;20101;-71
2023/12/30 09:19:58;;;;;;;23.75;3.47;;;7.70;99.90;;;;;;5027977;28;20491;-71
2023/12/30 09:22:24;;;;;;;17.63;2.85;;;7.70;99.90;;;;;;5040254;28;20029;-71
2023/12/30 09:24:49;;;;;;;16.95;2.88;;;7.70;99.90;;;;;;5024355;28;20020;-71
2023/12/30 09:27:15;;;;;;;18.75;3.10;;;7.70;99.90;;;;;;5039616;28;20402;-69
2023/12/30 09:29:41;;;;;;;16.88;2.70;;;7.70;99.90;;;;;;5044798;28;20048;-71
2023/12/30 09:32:07;;;;;;;16.00;3.03;;;7.70;99.90;;;;;;5049341;28;20052;-70
2023/12/30 09:34:33;;;;;;;18.08;2.88;;;7.70;99.90;;;;;;5059013;28;20076;-70
2023/12/30 09:36:58;;;;;;;17.08;2.70;;;7.70;99.90;;;;;;5061443;28;20285;-70
2023/12/30 09:39:24;;;;;;;19.60;3.28;;;7.80;99.90;;;;;;5031732;28;20095;-71
2023/12/30 09:41:51;;;;;;;14.85;3.03;;;7.80;99.90;;;;;;5034127;28;20021;-70
2023/12/30 09:44:18;;;;;;;15.48;2.58;;;7.80;99.90;;;;;;5033086;28;20025;-70
2023/12/30 09:46:46;;;;;;;20.40;2.67;;;7.80;99.90;;;;;;5031144;28;20048;-70
2023/12/30 09:49:14;;;;;;;15.68;2.47;;;7.90;99.90;;;;;;5050741;28;20021;-71
2023/12/30 09:51:39;;;;;;;18.92;3.47;;;7.90;99.90;;;;;;5061120;28;20036;-70
2023/12/30 09:54:05;;;;;;;16.55;2.80;;;7.90;99.90;;;;;;5061010;28;20552;-69
2023/12/30 09:56:32;;;;;;;14.57;2.38;;;8.00;99.90;;;;;;5050068;28;20120;-71
2023/12/30 09:58:58;;;;;;;16.63;2.42;;;8.00;99.90;;;;;;5057614;28;20024;-71
2023/12/30 10:01:24;;;;;;;16.83;2.72;;;8.00;99.90;;;;;;5043411;28;20075;-70
2023/12/30 10:03:50;;;;;;;13.85;3.08;;;8.10;99.90;;;;;;5040543;28;20025;-71
2023/12/30 10:06:20;;;;;;;21.17;3.88;;;8.10;99.90;;;;;;5029512;28;20029;-71
2023/12/30 10:08:48;;;;;;;15.98;2.80;;;8.10;99.90;;;;;;5053845;28;20024;-71
2023/12/30 10:11:13;;;;;;;20.40;3.40;;;8.20;99.90;;;;;;5024988;28;20443;-70
2023/12/30 10:13:39;;;;;;;15.38;2.60;;;8.10;99.90;;;;;;5061647;28;20020;-70
2023/12/30 10:16:06;;;;;;;17.33;3.30;;;8.20;99.90;;;;;;5037445;28;20028;-70
2023/12/30 10:18:32;;;;;;;15.25;3.42;;;8.20;99.90;;;;;;5038744;28;20030;-70
2023/12/30 10:20:58;;;;;;;17.30;3.08;;;8.20;99.90;;;;;;5049112;28;20075;-70
2023/12/30 10:23:26;;;;;;;16.00;2.95;;;8.30;99.90;;;;;;5050421;28;20497;-70
2023/12/30 10:25:52;;;;;;;12.02;3.13;;;8.30;99.90;;;;;;5039156;28;20037;-70
2023/12/30 10:28:18;;;;;;;16.40;3.08;;;8.30;99.90;;;;;;5054722;28;20024;-70
2023/12/30 10:30:43;;;;;;;16.63;2.33;;;8.30;99.90;;;;;;5038707;28;20035;-70
2023/12/30 10:33:14;;;;;;;17.40;3.20;;;8.30;99.90;;;;;;5040144;28;20036;-70
2023/12/30 10:35:44;;;;;;;19.02;2.92;;;8.40;99.90;;;;;;5038647;28;20060;-70
2023/12/30 10:38:15;;;;;;;16.53;2.57;;;8.40;99.90;;;;;;5047865;28;20460;-71
2023/12/30 10:40:43;;;;;;;12.10;2.38;;;8.40;99.90;;;;;;5054572;28;20029;-71
2023/12/30 10:43:08;;;;;;;15.13;2.88;;;8.40;99.90;;;;;;5050264;28;20052;-71
2023/12/30 10:45:34;;;;;;;21.25;3.45;;;8.40;99.90;;;;;;5030852;28;20080;-72
2023/12/30 10:48:01;;;;;;;16.17;3.30;;;8.50;99.90;;;;;;5029176;28;20021;-72
2023/12/30 10:50:27;;;;;;;13.48;3.03;;;8.50;99.90;;;;;;5064458;28;20339;-70
2023/12/30 10:53:02;;;;;;;16.23;3.22;;;8.50;99.90;;;;;;5059150;28;20119;-70
2023/12/30 10:55:35;;;;;;;19.15;3.65;;;8.60;99.90;;;;;;5054507;28;20040;-70
2023/12/30 10:58:11;;;;;;;17.60;2.88;;;8.60;99.90;;;;;;5027775;28;20544;-70
2023/12/30 11:00:37;;;;;;;16.52;3.13;;;8.60;99.90;;;;;;5058844;28;20025;-70
2023/12/30 11:03:07;;;;;;;18.25;3.25;;;8.60;99.90;;;;;;5046342;28;20033;-70
2023/12/30 11:05:47;;;;;;;17.43;3.60;;;8.60;99.90;;;;;;5038444;28;20022;-71
2023/12/30 11:08:14;;;;;;;24.33;3.75;;;8.60;99.90;;;;;;5042288;28;20025;-70
2023/12/30 11:10:39;;;;;;;18.15;4.22;;;8.60;99.90;;;;;;5037073;28;20022;-70
2023/12/30 11:13:06;;;;;;;13.95;3.65;;;8.60;99.90;;;;;;5018051;28;20061;-70
2023/12/30 11:15:32;;;;;;;21.85;3.38;;;8.60;99.90;;;;;;5041416;28;20028;-71
2023/12/30 11:17:58;;;;;;;25.20;4.80;;;8.70;99.90;;;;;;5029654;28;20018;-71
2023/12/30 11:20:29;;;;;;;19.65;5.47;;;8.70;99.90;;;;;;5008172;28;20025;-71
2023/12/30 11:23:06;;;;;;;26.70;4.90;;;8.70;99.90;;;;;;5034291;28;20040;-71
2023/12/30 11:25:52;;;;;;;20.05;3.65;;;8.70;99.90;;;;;;5039620;28;20024;-71
2023/12/30 11:28:22;;;;;;;22.35;3.67;;;8.70;99.90;;;;;;5039808;28;20112;-71
2023/12/30 11:30:59;;;;;;;21.80;4.28;;;8.80;99.90;;;;;;5027708;28;20113;-71
2023/12/30 11:33:25;;;;;;;23.92;4.32;;;8.80;99.90;;;;;;5040745;28;20036;-71
2023/12/30 11:35:56;;;;;;;19.90;4.57;;;8.80;99.90;;;;;;5015322;28;20140;-71
2023/12/30 11:38:24;;;;;;;18.77;4.10;;;8.80;99.90;;;;;;5034347;28;20083;-70
2023/12/30 11:40:54;;;;;;;19.88;4.00;;;8.80;99.90;;;;;;5028080;28;20024;-71
2023/12/30 11:43:21;;;;;;;16.35;4.55;;;8.80;99.90;;;;;;5036420;28;20020;-70
2023/12/30 11:45:46;;;;;;;18.70;4.53;;;8.90;99.90;;;;;;5037536;28;20033;-71
2023/12/30 11:48:19;;;;;;;22.80;5.50;;;8.90;99.90;;;;;;5036900;28;20021;-72
2023/12/30 11:50:52;;;;;;;24.70;6.60;;;8.90;99.90;;;;;;5021888;28;20568;-71
2023/12/30 11:53:18;;;;;;;19.38;5.13;;;8.90;99.90;;;;;;5045075;28;20009;-69
2023/12/30 11:55:44;;;;;;;20.55;6.00;;;9.00;99.90;;;;;;5041330;28;20029;-69
2023/12/30 11:58:10;;;;;;;20.80;5.53;;;9.00;99.90;;;;;;5013769;28;20048;-71
2023/12/30 12:00:36;;;;;;;23.25;5.55;;;9.00;99.90;;;;;;5033914;28;20029;-69
2023/12/30 12:03:01;;;;;;;20.30;5.63;;;9.00;99.90;;;;;;5026541;28;20041;-70
2023/12/30 12:05:27;;;;;;;25.63;6.47;;;9.00;99.90;;;;;;5027096;28;20021;-70
2023/12/30 12:07:53;;;;;;;23.60;6.57;;;9.10;99.90;;;;;;5028888;28;20108;-71
2023/12/30 12:10:19;;;;;;;24.05;6.03;;;9.10;99.90;;;;;;5039613;28;20025;-71
2023/12/30 12:12:45;;;;;;;20.40;5.40;;;9.20;99.90;;;;;;5025410;28;20147;-71
2023/12/30 12:15:12;;;;;;;28.00;5.78;;;9.20;99.90;;;;;;5055535;28;20059;-71
2023/12/30 12:17:38;;;;;;;23.48;6.35;;;9.30;99.90;;;;;;5052413;28;20036;-69
2023/12/30 12:20:07;;;;;;;18.95;5.32;;;9.30;99.90;;;;;;5046082;28;20027;-68
2023/12/30 12:22:34;;;;;;;31.85;6.32;;;9.40;99.90;;;;;;5050495;28;20022;-70
2023/12/30 12:25:02;;;;;;;19.15;5.22;;;9.40;99.90;;;;;;5027832;28;20128;-70
2023/12/30 12:27:29;;;;;;;19.65;5.85;;;9.50;99.90;;;;;;5023600;28;20029;-70
2023/12/30 12:29:56;;;;;;;22.55;6.25;;;9.50;99.90;;;;;;5042993;28;20039;-70
2023/12/30 12:32:23;;;;;;;42.50;7.57;;;9.50;99.90;;;;;;5044407;28;20025;-70
2023/12/30 12:34:51;;;;;;;22.67;5.65;;;9.50;99.90;;;;;;5047430;28;20070;-70
2023/12/30 12:37:18;;;;;;;28.00;6.50;;;9.50;99.90;;;;;;5037750;28;20047;-70
2023/12/30 12:39:44;;;;;;;23.80;5.75;;;9.50;99.90;;;;;;5052163;28;20025;-70
2023/12/30 12:42:14;;;;;;;26.15;6.22;;;9.50;99.90;;;;;;5057154;28;20016;-70
2023/12/30 12:44:40;;;;;;;25.50;7.20;;;9.60;99.90;;;;;;5059789;28;20505;-70